Time;durP1;ratioP1;P1;durP2;ratioP2;P2;SDS_P1;SDS_P2;PMS_P1;PMS_P2;Temp;Humidity;BMP_temperature;BMP_pressure;BME280_temperature;BME280_humidity;BME280_pressure;Samples;Min_cycle;Max_cycle;Signal;HPM_P1;HPM_P2
2020/12/16 00:00:35;;;;;;;2.92;2.47;;;18.20;59.00;;;;;;5043778;28;20696;-61
2020/12/16 00:03:00;;;;;;;4.25;3.00;;;18.20;59.10;;;;;;5044040;28;20168;-61
2020/12/16 00:05:26;;;;;;;3.10;2.90;;;18.20;59.00;;;;;;5043406;28;20182;-61
2020/12/16 00:07:51;;;;;;;3.30;2.75;;;18.20;59.00;;;;;;5043408;28;20309;-60
2020/12/16 00:10:17;;;;;;;3.33;3.10;;;18.20;59.00;;;;;;5043327;28;20179;-61
2020/12/16 00:12:42;;;;;;;3.10;2.90;;;18.20;59.00;;;;;;5043600;28;20179;-62
2020/12/16 00:15:08;;;;;;;3.75;3.35;;;18.20;59.00;;;;;;5044112;28;20542;-61
2020/12/16 00:17:34;;;;;;;3.35;3.05;;;18.10;59.00;;;;;;5046954;28;20318;-61
2020/12/16 00:20:00;;;;;;;3.30;3.10;;;18.20;59.00;;;;;;5046787;28;20207;-62
2020/12/16 00:22:25;;;;;;;3.17;2.97;;;18.20;59.00;;;;;;5046773;28;20190;-61
2020/12/16 00:24:51;;;;;;;3.15;2.85;;;18.10;58.90;;;;;;5046483;28;20175;-61
2020/12/16 00:27:16;;;;;;;3.50;3.20;;;18.10;58.90;;;;;;5046648;28;20250;-61
2020/12/16 00:29:42;;;;;;;3.53;3.22;;;18.10;58.90;;;;;;5046528;28;20332;-58
2020/12/16 00:32:08;;;;;;;3.60;3.30;;;18.10;58.90;;;;;;5046661;28;20199;-61
2020/12/16 00:34:33;;;;;;;3.10;2.80;;;18.10;58.90;;;;;;5046567;28;20276;-61
2020/12/16 00:36:59;;;;;;;3.58;3.28;;;18.10;58.90;;;;;;5046487;28;20259;-61
2020/12/16 00:39:24;;;;;;;3.35;3.05;;;18.10;58.90;;;;;;5046327;28;20213;-61
2020/12/16 00:41:50;;;;;;;3.50;3.20;;;18.00;58.80;;;;;;5046519;28;20198;-62
2020/12/16 00:44:15;;;;;;;3.67;3.40;;;18.10;58.90;;;;;;5046300;28;21022;-61
2020/12/16 00:46:41;;;;;;;3.65;3.35;;;18.00;58.80;;;;;;5046196;28;20176;-63
2020/12/16 00:49:06;;;;;;;3.83;3.47;;;18.10;58.90;;;;;;5045941;28;20228;-62
2020/12/16 00:51:32;;;;;;;3.10;2.90;;;17.90;59.40;;;;;;5046227;28;20175;-62
2020/12/16 00:53:58;;;;;;;3.15;2.95;;;18.00;58.80;;;;;;5046069;28;20226;-61
2020/12/16 00:56:23;;;;;;;3.45;3.15;;;18.00;58.80;;;;;;5046274;28;20182;-63
2020/12/16 00:58:49;;;;;;;3.42;3.13;;;18.00;58.80;;;;;;5046186;28;20688;-61
2020/12/16 01:01:14;;;;;;;3.67;3.38;;;18.00;58.80;;;;;;5046154;28;20589;-62
2020/12/16 01:03:40;;;;;;;3.53;3.22;;;17.90;58.80;;;;;;5046135;28;20175;-62
2020/12/16 01:06:05;;;;;;;3.90;3.60;;;18.00;58.80;;;;;;5045837;28;20225;-61
2020/12/16 01:08:31;;;;;;;3.70;3.40;;;18.00;58.80;;;;;;5045840;28;20175;-61
2020/12/16 01:10:57;;;;;;;3.67;3.38;;;18.00;58.70;;;;;;5046101;28;20212;-61
2020/12/16 01:13:22;;;;;;;3.55;3.25;;;17.90;58.70;;;;;;5045976;28;20233;-62
2020/12/16 01:15:48;;;;;;;3.50;3.20;;;18.00;58.80;;;;;;5045849;28;20566;-63
2020/12/16 01:18:13;;;;;;;3.40;3.20;;;17.90;58.80;;;;;;5045838;28;20225;-63
2020/12/16 01:20:39;;;;;;;4.25;3.85;;;17.90;58.70;;;;;;5045760;28;20181;-62
2020/12/16 01:23:05;;;;;;;3.80;3.50;;;17.90;58.70;;;;;;5045897;28;20261;-62
2020/12/16 01:25:30;;;;;;;3.42;3.13;;;18.00;58.70;;;;;;5045809;28;20203;-62
2020/12/16 01:27:59;;;;;;;3.60;3.30;;;17.90;58.70;;;;;;5044834;28;20182;-62
2020/12/16 01:30:24;;;;;;;4.25;3.85;;;17.90;58.70;;;;;;5045991;28;20170;-62
2020/12/16 01:32:51;;;;;;;3.60;3.30;;;17.90;58.70;;;;;;5045607;28;20171;-61
2020/12/16 01:35:16;;;;;;;3.72;3.42;;;17.90;58.70;;;;;;5045713;28;20333;-62
2020/12/16 01:37:42;;;;;;;4.13;3.83;;;17.90;58.70;;;;;;5045369;28;20203;-62
2020/12/16 01:40:08;;;;;;;4.38;3.97;;;17.80;58.60;;;;;;5045582;28;20223;-63
2020/12/16 01:42:34;;;;;;;4.15;3.75;;;17.80;58.60;;;;;;5027997;28;20167;-62
2020/12/16 01:45:22;;;;;;;3.78;3.47;;;17.80;58.60;;;;;;5045481;28;20171;-62
2020/12/16 01:47:48;;;;;;;3.38;3.08;;;17.90;58.70;;;;;;5045370;28;20244;-62
2020/12/16 01:50:14;;;;;;;3.67;3.38;;;17.80;58.60;;;;;;5045317;28;21232;-62
2020/12/16 01:52:40;;;;;;;4.07;3.63;;;17.90;58.60;;;;;;5045204;28;20180;-61
2020/12/16 01:55:07;;;;;;;3.75;3.45;;;17.80;58.60;;;;;;5044842;28;20183;-61
2020/12/16 01:57:39;;;;;;;3.65;3.35;;;17.80;58.50;;;;;;5045364;28;20930;-61
2020/12/16 02:00:08;;;;;;;4.38;4.07;;;17.80;58.60;;;;;;5045364;28;20274;-60
2020/12/16 02:02:52;;;;;;;4.18;3.88;;;17.80;58.60;;;;;;5045045;28;20203;-61
2020/12/16 02:05:22;;;;;;;4.47;4.18;;;17.80;58.50;;;;;;5044880;28;20183;-60
2020/12/16 02:07:48;;;;;;;4.07;3.67;;;17.80;59.10;;;;;;5027501;28;20619;-61
2020/12/16 02:10:14;;;;;;;4.50;4.10;;;17.70;58.50;;;;;;5026999;28;20643;-61
2020/12/16 02:12:39;;;;;;;4.22;3.83;;;17.80;58.50;;;;;;5044700;28;20965;-62
2020/12/16 02:15:05;;;;;;;3.85;3.55;;;17.80;58.50;;;;;;5044760;28;20887;-62
2020/12/16 02:17:31;;;;;;;4.22;3.83;;;17.70;58.50;;;;;;5044551;28;20171;-61
2020/12/16 02:19:58;;;;;;;4.40;4.00;;;17.70;58.40;;;;;;5044495;28;20679;-61
2020/12/16 02:22:23;;;;;;;4.15;3.85;;;17.70;58.40;;;;;;5044445;28;20179;-61
2020/12/16 02:25:03;;;;;;;4.22;3.88;;;17.70;58.40;;;;;;5044535;28;20992;-61
2020/12/16 02:27:29;;;;;;;4.65;4.25;;;17.70;58.40;;;;;;5028378;28;20182;-61
2020/12/16 02:29:55;;;;;;;4.68;4.28;;;17.70;58.40;;;;;;5044544;28;20179;-61
2020/12/16 02:32:23;;;;;;;3.92;3.63;;;17.70;58.40;;;;;;5044735;28;20175;-61
2020/12/16 02:34:48;;;;;;;4.25;3.85;;;17.70;58.40;;;;;;5026752;28;20243;-62
2020/12/16 02:37:14;;;;;;;4.40;4.00;;;17.70;58.40;;;;;;5044630;28;20629;-62
2020/12/16 02:39:39;;;;;;;3.90;3.60;;;17.70;58.40;;;;;;5043854;28;20609;-62
2020/12/16 02:42:05;;;;;;;4.22;3.88;;;17.60;58.40;;;;;;5044828;28;20537;-61
2020/12/16 02:44:31;;;;;;;4.25;3.85;;;17.70;58.40;;;;;;5026778;28;20171;-61
2020/12/16 02:46:57;;;;;;;4.22;3.83;;;17.70;58.40;;;;;;5044148;28;20648;-61
2020/12/16 02:49:23;;;;;;;4.25;3.88;;;17.60;58.40;;;;;;5044278;28;20539;-60
2020/12/16 02:51:48;;;;;;;4.68;4.28;;;17.60;58.30;;;;;;5044488;28;20183;-61
2020/12/16 02:54:14;;;;;;;4.05;3.65;;;17.60;58.40;;;;;;5044176;28;20175;-60
2020/12/16 02:56:40;;;;;;;3.90;3.60;;;17.60;58.40;;;;;;5044358;28;20174;-61
2020/12/16 02:59:05;;;;;;;4.20;3.90;;;17.60;58.40;;;;;;5043822;28;20342;-61
2020/12/16 03:01:31;;;;;;;3.97;3.67;;;17.60;58.40;;;;;;5044267;28;20241;-61
2020/12/16 03:03:56;;;;;;;4.57;4.18;;;17.60;58.30;;;;;;5044061;28;20179;-58
2020/12/16 03:06:22;;;;;;;4.35;4.05;;;17.60;58.40;;;;;;5044077;28;20269;-61
2020/12/16 03:08:47;;;;;;;4.40;4.07;;;17.60;58.30;;;;;;5043583;28;20225;-61
2020/12/16 03:11:17;;;;;;;3.88;3.58;;;17.60;58.30;;;;;;5043798;28;20171;-60
2020/12/16 03:13:43;;;;;;;3.83;3.53;;;17.50;58.20;;;;;;5044105;28;20174;-62
2020/12/16 03:16:08;;;;;;;4.03;3.72;;;17.50;58.30;;;;;;5043840;28;20175;-63
2020/12/16 03:18:34;;;;;;;3.92;3.63;;;17.60;58.30;;;;;;5044035;28;20218;-62
2020/12/16 03:20:59;;;;;;;4.60;4.20;;;17.50;58.20;;;;;;5043825;28;20175;-62
2020/12/16 03:23:25;;;;;;;4.45;4.15;;;17.50;58.30;;;;;;5043633;28;20183;-61
2020/12/16 03:25:50;;;;;;;4.47;4.13;;;17.50;58.20;;;;;;5043780;28;20260;-61
2020/12/16 03:28:16;;;;;;;3.90;3.60;;;17.60;58.20;;;;;;5044060;28;20278;-61
2020/12/16 03:30:41;;;;;;;4.25;3.90;;;17.50;58.20;;;;;;5043554;28;20199;-61
2020/12/16 03:33:07;;;;;;;4.03;3.72;;;17.50;58.20;;;;;;5043760;28;20172;-61
2020/12/16 03:35:32;;;;;;;3.70;3.40;;;17.50;58.20;;;;;;5043995;28;20203;-60
2020/12/16 03:37:58;;;;;;;3.80;3.50;;;17.50;58.20;;;;;;5043432;28;20203;-61
2020/12/16 03:40:24;;;;;;;3.65;3.35;;;17.50;58.20;;;;;;5043260;28;20179;-62
2020/12/16 03:42:49;;;;;;;4.32;4.00;;;17.50;58.20;;;;;;5043811;28;20179;-62
2020/12/16 03:45:15;;;;;;;3.90;3.60;;;17.50;58.20;;;;;;5043757;28;20683;-62
2020/12/16 03:47:40;;;;;;;3.33;3.13;;;17.50;58.20;;;;;;5043491;28;20633;-62
2020/12/16 03:50:06;;;;;;;4.13;3.83;;;17.50;58.20;;;;;;5044086;28;20547;-62
2020/12/16 03:52:31;;;;;;;3.70;3.40;;;17.40;58.10;;;;;;5047225;28;20623;-61
2020/12/16 03:54:57;;;;;;;3.75;3.45;;;17.50;58.20;;;;;;5047246;28;20202;-61
2020/12/16 03:57:22;;;;;;;3.35;3.15;;;17.50;58.20;;;;;;5047395;28;20175;-62
2020/12/16 03:59:48;;;;;;;4.07;3.42;;;17.40;58.10;;;;;;5047220;28;20262;-59
2020/12/16 04:02:14;;;;;;;3.70;3.40;;;17.40;58.10;;;;;;5047134;28;20237;-61
2020/12/16 04:04:39;;;;;;;3.67;3.40;;;17.40;58.10;;;;;;5047210;28;20179;-61
2020/12/16 04:07:05;;;;;;;3.50;3.30;;;17.40;58.10;;;;;;5047261;28;20176;-60
2020/12/16 04:09:30;;;;;;;3.50;3.22;;;17.40;58.00;;;;;;5047311;28;20225;-61
2020/12/16 04:11:56;;;;;;;3.30;3.10;;;17.40;58.10;;;;;;5047122;28;20565;-61
2020/12/16 04:14:21;;;;;;;3.65;3.15;;;17.40;58.10;;;;;;5047300;28;20187;-62
2020/12/16 04:16:47;;;;;;;3.85;3.55;;;17.40;58.00;;;;;;5029391;28;20182;-62
2020/12/16 04:19:13;;;;;;;3.67;3.42;;;17.40;58.10;;;;;;5047188;28;20199;-63
2020/12/16 04:21:38;;;;;;;3.80;3.50;;;17.40;58.10;;;;;;5029216;28;20535;-62
2020/12/16 04:24:04;;;;;;;3.50;3.20;;;17.40;58.00;;;;;;5046847;28;20623;-63
2020/12/16 04:26:29;;;;;;;3.60;3.30;;;17.30;58.00;;;;;;5046968;28;20245;-62
2020/12/16 04:28:55;;;;;;;3.60;3.30;;;17.30;58.00;;;;;;5046916;28;20252;-61
2020/12/16 04:31:20;;;;;;;3.25;3.05;;;17.30;58.00;;;;;;5046730;28;20183;-62
2020/12/16 04:33:46;;;;;;;3.55;3.25;;;17.40;58.10;;;;;;5046628;28;20175;-60
2020/12/16 04:36:11;;;;;;;3.63;3.33;;;17.30;58.00;;;;;;5046416;28;20274;-61
2020/12/16 04:38:37;;;;;;;3.88;3.58;;;17.40;58.10;;;;;;5046501;28;20210;-62
2020/12/16 04:41:06;;;;;;;4.50;3.30;;;17.40;58.00;;;;;;5046445;28;20183;-62
2020/12/16 04:43:31;;;;;;;3.88;3.58;;;17.30;58.00;;;;;;5028644;28;20179;-62
2020/12/16 04:45:57;;;;;;;3.63;3.33;;;17.30;58.00;;;;;;5028933;28;20365;-61
2020/12/16 04:48:23;;;;;;;3.88;3.58;;;17.30;58.00;;;;;;5046496;28;20186;-62
2020/12/16 04:50:49;;;;;;;3.45;3.20;;;17.30;58.00;;;;;;5046317;28;20202;-62
2020/12/16 04:53:16;;;;;;;3.40;3.20;;;17.30;58.00;;;;;;5012010;28;20274;-62
2020/12/16 04:55:41;;;;;;;3.83;3.40;;;17.30;58.00;;;;;;5045854;28;20190;-61
2020/12/16 04:58:08;;;;;;;3.95;3.65;;;17.30;58.00;;;;;;5046251;28;20202;-61
2020/12/16 05:00:34;;;;;;;3.50;3.20;;;17.30;58.00;;;;;;5012047;28;20278;-60
2020/12/16 05:03:00;;;;;;;3.30;3.10;;;17.30;58.00;;;;;;5045663;28;20958;-62
2020/12/16 05:05:26;;;;;;;3.90;3.60;;;17.30;58.00;;;;;;5046202;28;20228;-61
2020/12/16 05:07:53;;;;;;;3.88;3.58;;;17.30;58.00;;;;;;5046038;28;20183;-61
2020/12/16 05:10:37;;;;;;;3.25;3.00;;;17.30;58.00;;;;;;5046010;28;20186;-61
2020/12/16 05:13:14;;;;;;;3.40;3.13;;;17.20;57.90;;;;;;5045830;28;20174;-62
2020/12/16 05:15:41;;;;;;;3.63;3.40;;;17.30;58.00;;;;;;5045890;28;20562;-62
2020/12/16 05:18:08;;;;;;;3.33;3.08;;;17.30;58.00;;;;;;5045641;28;20903;-62
2020/12/16 05:20:34;;;;;;;3.65;3.35;;;17.20;58.50;;;;;;5045655;28;20943;-62
2020/12/16 05:23:01;;;;;;;3.63;3.40;;;17.30;57.90;;;;;;5045576;28;20172;-62
2020/12/16 05:25:27;;;;;;;3.85;3.55;;;17.20;57.90;;;;;;5045854;28;20531;-62
2020/12/16 05:27:53;;;;;;;3.58;3.28;;;17.20;57.90;;;;;;5045726;28;20183;-61
2020/12/16 05:30:18;;;;;;;3.00;2.80;;;17.20;57.90;;;;;;5045382;28;20190;-61
2020/12/16 05:32:44;;;;;;;3.03;2.83;;;17.20;57.80;;;;;;5045560;28;20270;-62
2020/12/16 05:35:29;;;;;;;3.70;3.40;;;17.20;57.90;;;;;;5045494;28;20279;-58
2020/12/16 05:38:01;;;;;;;3.17;2.97;;;17.20;57.80;;;;;;5045616;28;20209;-61
2020/12/16 05:40:28;;;;;;;3.22;3.03;;;17.20;57.80;;;;;;5045559;28;20640;-62
2020/12/16 05:42:53;;;;;;;3.80;3.50;;;17.20;57.80;;;;;;5027617;28;20167;-62
2020/12/16 05:45:21;;;;;;;3.20;3.00;;;17.20;57.80;;;;;;5045144;28;20186;-63
2020/12/16 05:48:06;;;;;;;3.78;3.47;;;17.20;57.80;;;;;;5045059;28;20167;-62
2020/12/16 05:50:37;;;;;;;3.67;3.38;;;17.20;57.80;;;;;;5027925;28;20171;-61
2020/12/16 05:53:19;;;;;;;3.45;3.25;;;17.20;57.80;;;;;;5045225;28;20171;-62
2020/12/16 05:55:48;;;;;;;3.20;2.97;;;17.10;57.70;;;;;;5044990;28;20212;-61
2020/12/16 05:58:16;;;;;;;3.20;3.00;;;17.20;57.70;;;;;;5045096;28;20205;-62
2020/12/16 06:00:42;;;;;;;3.22;2.92;;;17.20;57.80;;;;;;5045272;28;20179;-61
2020/12/16 06:03:22;;;;;;;3.33;3.03;;;17.10;57.90;;;;;;5045150;28;20178;-62
2020/12/16 06:05:55;;;;;;;3.15;2.95;;;17.20;57.90;;;;;;5029136;28;20219;-60
2020/12/16 06:08:21;;;;;;;2.95;2.75;;;17.20;57.90;;;;;;5044969;28;20341;-62
2020/12/16 06:10:48;;;;;;;2.92;2.72;;;17.20;57.90;;;;;;5044786;28;20282;-61
2020/12/16 06:13:14;;;;;;;3.20;2.95;;;17.30;57.90;;;;;;5044020;28;20187;-62
2020/12/16 06:15:46;;;;;;;3.50;3.22;;;17.30;57.90;;;;;;5044553;28;20190;-62
2020/12/16 06:18:13;;;;;;;3.38;3.17;;;17.30;57.90;;;;;;5044668;28;20198;-62
2020/12/16 06:20:39;;;;;;;3.00;2.80;;;17.30;57.90;;;;;;5027063;28;20175;-62
2020/12/16 06:23:04;;;;;;;2.70;2.50;;;17.30;57.90;;;;;;5010458;28;20178;-62
2020/12/16 06:25:30;;;;;;;3.20;2.90;;;17.30;57.90;;;;;;5010118;28;20201;-62
2020/12/16 06:27:55;;;;;;;2.72;2.53;;;17.20;57.90;;;;;;5010496;28;20290;-61
2020/12/16 06:30:30;;;;;;;2.80;2.60;;;17.20;57.80;;;;;;5010432;28;20212;-61
2020/12/16 06:33:13;;;;;;;2.85;2.60;;;17.20;57.80;;;;;;5044530;28;20544;-62
2020/12/16 06:35:41;;;;;;;2.75;2.55;;;17.20;57.80;;;;;;5044435;28;20175;-62
2020/12/16 06:38:20;;;;;;;2.80;2.60;;;17.20;57.80;;;;;;5026587;28;20569;-62
2020/12/16 06:40:50;;;;;;;3.10;2.90;;;17.20;57.90;;;;;;5044143;28;20179;-62
2020/12/16 06:43:45;;;;;;;3.08;2.88;;;17.10;57.90;;;;;;5044201;28;20567;-62
2020/12/16 06:46:32;;;;;;;3.00;2.80;;;17.20;57.90;;;;;;5023112;28;20286;-62
2020/12/16 06:49:04;;;;;;;3.03;2.83;;;17.10;57.90;;;;;;5044344;28;20171;-62
2020/12/16 06:51:36;;;;;;;2.88;2.67;;;17.10;57.80;;;;;;5044500;28;20171;-63
2020/12/16 06:54:05;;;;;;;3.00;2.80;;;17.10;57.80;;;;;;5043886;28;20172;-62
2020/12/16 06:56:31;;;;;;;2.63;2.42;;;17.10;57.80;;;;;;5043985;28;20167;-62
2020/12/16 06:58:57;;;;;;;2.95;2.75;;;17.10;57.80;;;;;;5044011;28;20690;-62
2020/12/16 07:01:22;;;;;;;2.63;2.42;;;17.10;57.70;;;;;;5044129;28;20186;-62
2020/12/16 07:03:48;;;;;;;2.90;2.70;;;17.10;57.80;;;;;;5044205;28;20648;-61
2020/12/16 07:06:34;;;;;;;3.40;3.10;;;17.10;58.00;;;;;;5026460;28;20629;-61
2020/12/16 07:09:19;;;;;;;2.60;2.40;;;17.10;57.80;;;;;;5044062;28;20214;-61
2020/12/16 07:11:48;;;;;;;2.55;2.40;;;17.10;57.80;;;;;;5043639;28;20214;-60
2020/12/16 07:14:18;;;;;;;2.88;2.67;;;17.10;57.80;;;;;;5044296;28;21003;-62
2020/12/16 07:16:43;;;;;;;2.88;2.67;;;17.10;57.70;;;;;;5010101;28;20198;-62
2020/12/16 07:19:09;;;;;;;3.10;2.90;;;17.10;57.70;;;;;;5043914;28;21127;-62
2020/12/16 07:21:36;;;;;;;2.50;2.30;;;17.10;57.70;;;;;;5026303;28;20971;-62
2020/12/16 07:24:14;;;;;;;2.53;2.33;;;17.10;57.70;;;;;;5043927;28;20272;-61
2020/12/16 07:26:47;;;;;;;2.42;2.28;;;17.10;57.70;;;;;;5047452;28;20186;-60
2020/12/16 07:29:28;;;;;;;2.83;2.63;;;17.20;57.70;;;;;;5047810;28;20729;-61
2020/12/16 07:32:05;;;;;;;2.50;2.30;;;17.10;57.70;;;;;;5029653;28;20294;-61
2020/12/16 07:34:32;;;;;;;2.28;2.15;;;17.10;57.60;;;;;;5048151;28;20536;-61
2020/12/16 07:37:02;;;;;;;2.70;2.50;;;17.10;58.30;;;;;;5047809;28;20182;-61
2020/12/16 07:39:28;;;;;;;2.50;2.30;;;17.10;57.60;;;;;;5047495;28;20215;-61
2020/12/16 07:41:55;;;;;;;2.72;2.50;;;17.10;57.60;;;;;;5047593;28;20182;-61
2020/12/16 07:44:21;;;;;;;2.67;2.47;;;17.20;57.70;;;;;;5029881;28;20576;-62
2020/12/16 07:46:46;;;;;;;2.15;2.05;;;17.20;57.70;;;;;;5047569;28;20175;-62
2020/12/16 07:49:12;;;;;;;2.60;2.40;;;17.20;57.70;;;;;;5047588;28;20630;-62
2020/12/16 07:51:38;;;;;;;2.72;2.53;;;17.20;57.70;;;;;;5047636;28;20203;-62
2020/12/16 07:54:04;;;;;;;2.67;2.47;;;17.10;57.60;;;;;;5047465;28;20167;-62
2020/12/16 07:56:29;;;;;;;2.63;2.42;;;17.10;57.60;;;;;;5046986;28;20577;-62
2020/12/16 07:58:55;;;;;;;1.90;1.80;;;17.10;57.60;;;;;;5047257;28;20661;-61
2020/12/16 08:01:20;;;;;;;2.70;2.53;;;17.20;57.70;;;;;;5047536;28;20175;-59
2020/12/16 08:03:46;;;;;;;2.35;2.25;;;17.10;57.60;;;;;;5047581;28;20560;-66
2020/12/16 08:06:12;;;;;;;2.15;1.98;;;17.10;58.20;;;;;;5047044;28;20207;-66
2020/12/16 08:08:48;;;;;;;2.38;2.17;;;17.20;57.70;;;;;;5046845;28;20182;-66
2020/12/16 08:11:18;;;;;;;2.20;2.10;;;17.20;57.70;;;;;;5029291;28;20672;-65
2020/12/16 08:13:43;;;;;;;2.35;2.15;;;17.30;57.70;;;;;;5047219;28;20171;-64
2020/12/16 08:16:09;;;;;;;2.90;2.70;;;17.30;57.50;;;;;;5029375;28;20613;-65
2020/12/16 08:18:38;;;;;;;2.00;1.88;;;17.30;57.50;;;;;;5029152;28;20353;-65
2020/12/16 08:21:14;;;;;;;2.38;2.17;;;17.30;57.40;;;;;;5047202;28;20295;-65
2020/12/16 08:23:39;;;;;;;1.92;1.83;;;17.30;57.40;;;;;;5028515;28;20969;-65
2020/12/16 08:26:05;;;;;;;2.50;2.30;;;17.30;57.40;;;;;;5046828;28;20248;-64
2020/12/16 08:28:31;;;;;;;2.42;2.30;;;17.30;57.40;;;;;;5046706;28;21025;-65
2020/12/16 08:30:56;;;;;;;2.00;1.90;;;17.30;57.50;;;;;;5029027;28;20175;-65
2020/12/16 08:33:22;;;;;;;2.20;2.10;;;17.30;57.50;;;;;;5012416;28;20207;-65
2020/12/16 08:35:50;;;;;;;2.20;2.10;;;17.30;57.50;;;;;;5011863;28;20278;-65
2020/12/16 08:38:40;;;;;;;2.40;2.28;;;17.30;57.50;;;;;;5046642;28;20234;-65
2020/12/16 08:41:07;;;;;;;1.95;1.85;;;17.40;57.40;;;;;;5016495;28;20187;-64
2020/12/16 08:43:35;;;;;;;2.40;2.20;;;17.40;57.30;;;;;;5012246;28;20707;-66
2020/12/16 08:46:24;;;;;;;2.60;2.08;;;17.50;57.30;;;;;;5046552;28;20210;-65
2020/12/16 08:48:59;;;;;;;2.10;2.00;;;17.50;57.20;;;;;;5031251;28;20181;-66
2020/12/16 08:51:34;;;;;;;2.50;2.30;;;17.50;57.10;;;;;;5046365;28;20187;-67
2020/12/16 08:54:01;;;;;;;2.08;1.98;;;17.50;57.20;;;;;;5046401;28;20182;-66
2020/12/16 08:56:28;;;;;;;1.95;1.85;;;17.50;57.20;;;;;;5028676;28;20175;-65
2020/12/16 08:59:13;;;;;;;2.47;2.28;;;17.50;57.20;;;;;;5028212;28;20546;-65
2020/12/16 09:01:49;;;;;;;2.25;2.10;;;17.50;57.10;;;;;;5046002;28;20893;-65
2020/12/16 09:04:34;;;;;;;3.13;2.40;;;17.60;57.10;;;;;;5046526;28;20174;-65
2020/12/16 09:07:13;;;;;;;2.03;1.90;;;17.60;57.00;;;;;;5046191;28;20536;-67
2020/12/16 09:09:53;;;;;;;2.30;2.10;;;17.60;57.00;;;;;;5046125;28;20193;-65
2020/12/16 09:12:19;;;;;;;2.00;1.77;;;17.60;57.00;;;;;;5028533;28;20558;-66
2020/12/16 09:15:04;;;;;;;2.00;1.90;;;17.70;57.10;;;;;;5028107;28;20241;-65
2020/12/16 09:17:30;;;;;;;2.42;2.05;;;17.60;57.10;;;;;;5045928;28;20176;-69
2020/12/16 09:19:57;;;;;;;2.40;2.20;;;17.70;57.30;;;;;;5046040;28;20203;-71
2020/12/16 09:22:29;;;;;;;2.33;1.75;;;17.70;57.50;;;;;;5045904;28;20180;-74
2020/12/16 09:24:58;;;;;;;3.20;2.25;;;17.70;57.30;;;;;;5045680;28;20221;-71
2020/12/16 09:27:24;;;;;;;2.25;2.00;;;17.70;57.30;;;;;;5045893;28;20652;-75
2020/12/16 09:29:49;;;;;;;2.38;2.13;;;17.70;57.40;;;;;;5045497;28;20214;-73
2020/12/16 09:32:16;;;;;;;2.53;2.33;;;17.70;57.50;;;;;;5027600;28;20636;-72
2020/12/16 09:34:43;;;;;;;1.98;1.88;;;17.60;57.40;;;;;;5045504;28;20271;-72
2020/12/16 09:37:28;;;;;;;2.50;2.30;;;17.70;57.50;;;;;;5027986;28;20171;-70
2020/12/16 09:40:07;;;;;;;2.72;2.53;;;17.60;57.60;;;;;;5045259;28;20297;-71
2020/12/16 09:42:32;;;;;;;2.35;2.10;;;17.60;57.60;;;;;;5045090;28;20656;-72
2020/12/16 09:45:12;;;;;;;2.47;2.28;;;17.60;57.70;;;;;;5045069;28;20175;-72
2020/12/16 09:47:44;;;;;;;3.83;2.85;;;17.50;57.80;;;;;;5044870;28;20281;-73
2020/12/16 09:50:10;;;;;;;2.63;2.42;;;17.50;57.80;;;;;;5045654;28;20183;-71
2020/12/16 09:52:36;;;;;;;3.72;2.40;;;17.50;58.00;;;;;;5045524;28;20609;-72
2020/12/16 09:55:21;;;;;;;2.35;2.15;;;17.50;58.10;;;;;;5045146;28;20175;-72
2020/12/16 09:58:04;;;;;;;2.30;2.10;;;17.50;58.30;;;;;;5045281;28;20179;-71
2020/12/16 10:00:29;;;;;;;2.38;2.08;;;17.30;58.00;;;;;;5010872;28;20179;-70
2020/12/16 10:03:05;;;;;;;4.00;2.75;;;17.40;58.20;;;;;;5027328;28;20252;-71
2020/12/16 10:05:35;;;;;;;2.50;2.30;;;17.40;58.20;;;;;;5044631;28;20176;-70
2020/12/16 10:08:01;;;;;;;4.22;2.60;;;17.40;58.20;;;;;;5044895;28;21057;-70
2020/12/16 10:10:31;;;;;;;2.85;2.38;;;17.30;58.20;;;;;;5044718;28;20289;-70
2020/12/16 10:12:57;;;;;;;2.60;2.40;;;17.30;58.20;;;;;;5026473;28;21057;-66
2020/12/16 10:15:22;;;;;;;5.22;2.47;;;17.40;58.40;;;;;;5044538;28;20179;-65
2020/12/16 10:17:48;;;;;;;2.83;2.47;;;17.40;58.30;;;;;;5026863;28;20175;-65
2020/12/16 10:20:14;;;;;;;5.07;2.60;;;17.40;58.40;;;;;;5044443;28;20236;-64
2020/12/16 10:22:42;;;;;;;2.58;2.38;;;17.40;58.40;;;;;;5051820;28;20190;-66
2020/12/16 10:25:08;;;;;;;4.60;3.03;;;17.40;58.70;;;;;;5054400;28;20191;-66
2020/12/16 10:27:34;;;;;;;4.03;2.47;;;17.50;58.50;;;;;;5032194;28;20579;-66
2020/12/16 10:29:59;;;;;;;3.35;2.60;;;17.50;58.60;;;;;;5054499;28;20200;-66
2020/12/16 10:32:28;;;;;;;5.65;2.60;;;17.50;58.60;;;;;;5053279;28;20191;-66
2020/12/16 10:34:55;;;;;;;3.35;2.53;;;17.50;58.60;;;;;;5052881;28;20540;-65
2020/12/16 10:37:21;;;;;;;3.20;2.88;;;17.50;58.40;;;;;;5052463;28;20175;-65
2020/12/16 10:39:47;;;;;;;2.83;2.63;;;17.50;58.60;;;;;;5050489;28;20967;-66
2020/12/16 10:42:13;;;;;;;4.13;2.83;;;17.50;58.60;;;;;;5053572;28;20311;-65
2020/12/16 10:44:38;;;;;;;4.20;2.88;;;17.50;58.50;;;;;;5052036;28;20179;-65
2020/12/16 10:47:06;;;;;;;3.80;2.78;;;17.60;58.70;;;;;;5052324;28;20951;-65
2020/12/16 10:49:32;;;;;;;3.03;2.70;;;17.50;58.60;;;;;;5036529;28;20611;-66
2020/12/16 10:52:02;;;;;;;2.65;2.22;;;17.60;58.70;;;;;;5051925;28;20179;-65
2020/12/16 10:54:28;;;;;;;5.35;3.10;;;17.60;59.00;;;;;;5034746;28;20175;-65
2020/12/16 10:56:57;;;;;;;2.70;2.50;;;17.60;58.90;;;;;;5053744;28;20189;-65
2020/12/16 10:59:23;;;;;;;2.58;2.38;;;17.60;58.70;;;;;;5052482;28;20289;-65
2020/12/16 11:01:49;;;;;;;4.40;2.70;;;17.70;58.90;;;;;;5051729;28;20191;-65
2020/12/16 11:04:14;;;;;;;2.97;2.65;;;17.70;58.60;;;;;;5053912;28;20178;-65
2020/12/16 11:06:45;;;;;;;2.58;2.38;;;17.60;58.50;;;;;;5034616;28;20683;-63
2020/12/16 11:09:11;;;;;;;3.42;3.13;;;17.60;58.60;;;;;;5051813;28;20178;-64
2020/12/16 11:11:40;;;;;;;3.08;2.83;;;17.60;58.80;;;;;;5036324;28;20179;-65
2020/12/16 11:14:06;;;;;;;3.10;2.75;;;17.60;58.80;;;;;;5052943;28;20189;-65
2020/12/16 11:16:32;;;;;;;3.30;2.75;;;17.50;58.90;;;;;;5051451;28;20183;-66
2020/12/16 11:18:58;;;;;;;2.90;2.63;;;17.60;59.10;;;;;;5053430;28;20565;-68
2020/12/16 11:21:24;;;;;;;3.00;2.67;;;17.60;59.60;;;;;;5052526;28;20208;-67
2020/12/16 11:23:49;;;;;;;3.03;2.72;;;17.60;59.00;;;;;;5034212;28;20177;-67
2020/12/16 11:26:15;;;;;;;2.72;2.42;;;17.60;59.00;;;;;;5053160;28;20195;-67
2020/12/16 11:28:41;;;;;;;3.08;2.85;;;17.60;59.10;;;;;;5052045;28;20520;-66
2020/12/16 11:31:06;;;;;;;3.47;3.17;;;17.60;59.00;;;;;;5052001;28;20540;-66
2020/12/16 11:33:32;;;;;;;3.10;2.85;;;17.60;59.00;;;;;;5062981;28;20174;-66
2020/12/16 11:35:58;;;;;;;2.80;2.60;;;17.60;59.10;;;;;;5063811;28;20178;-64
2020/12/16 11:38:24;;;;;;;2.72;2.53;;;17.60;59.20;;;;;;5063959;28;20356;-66
2020/12/16 11:40:49;;;;;;;3.28;2.70;;;17.60;59.30;;;;;;5064149;28;20787;-67
2020/12/16 11:43:15;;;;;;;3.78;2.78;;;17.50;59.20;;;;;;5063870;28;20579;-67
2020/12/16 11:45:40;;;;;;;3.22;2.60;;;17.50;59.30;;;;;;5063511;28;20503;-68
2020/12/16 11:48:06;;;;;;;4.03;3.03;;;17.50;59.30;;;;;;5063673;28;20190;-66
2020/12/16 11:50:31;;;;;;;5.07;3.50;;;17.50;59.30;;;;;;5063779;28;20178;-66
2020/12/16 11:52:57;;;;;;;6.60;3.20;;;17.50;59.30;;;;;;5063518;28;20257;-67
2020/12/16 11:55:22;;;;;;;3.78;3.10;;;17.50;59.60;;;;;;5063481;28;20179;-68
2020/12/16 11:57:48;;;;;;;4.47;2.88;;;17.40;59.70;;;;;;5045638;28;20364;-67
2020/12/16 12:00:14;;;;;;;3.33;3.08;;;17.40;59.40;;;;;;5063320;28;20186;-66
2020/12/16 12:02:39;;;;;;;3.95;2.55;;;17.40;59.50;;;;;;5063661;28;20174;-66
2020/12/16 12:05:05;;;;;;;4.03;2.55;;;17.50;59.50;;;;;;5063570;28;20182;-66
2020/12/16 12:07:30;;;;;;;4.13;2.47;;;17.50;59.50;;;;;;5063359;28;20933;-64
2020/12/16 12:09:56;;;;;;;4.63;2.58;;;17.60;59.70;;;;;;5045831;28;20178;-65
2020/12/16 12:12:21;;;;;;;2.50;2.30;;;17.80;59.50;;;;;;5065713;28;20245;-65
2020/12/16 12:14:47;;;;;;;3.10;2.50;;;18.10;59.10;;;;;;5066925;28;20175;-65
2020/12/16 12:17:13;;;;;;;3.47;2.40;;;18.40;58.50;;;;;;5049144;28;20239;-65
2020/12/16 12:19:42;;;;;;;3.00;2.72;;;18.80;57.70;;;;;;5066849;28;20241;-64
2020/12/16 12:22:08;;;;;;;2.22;2.03;;;19.20;56.90;;;;;;5066877;28;20228;-65
2020/12/16 12:24:33;;;;;;;2.42;2.22;;;19.50;56.30;;;;;;5049051;28;20167;-68
2020/12/16 12:26:59;;;;;;;4.47;2.20;;;19.60;56.10;;;;;;5066565;28;20540;-64
2020/12/16 12:29:24;;;;;;;4.38;2.22;;;19.80;56.00;;;;;;5066547;28;20269;-64
2020/12/16 12:32:05;;;;;;;3.90;2.20;;;19.90;55.90;;;;;;5033509;28;20292;-65
2020/12/16 12:34:31;;;;;;;3.45;1.77;;;20.10;55.60;;;;;;5067057;28;20262;-66
2020/12/16 12:36:56;;;;;;;4.65;2.17;;;20.20;55.30;;;;;;5066925;28;20175;-65
2020/12/16 12:39:22;;;;;;;3.70;1.88;;;20.30;55.20;;;;;;5066603;28;20210;-66
2020/12/16 12:41:51;;;;;;;2.22;1.70;;;20.40;55.00;;;;;;5048448;28;20178;-66
2020/12/16 12:44:16;;;;;;;4.78;2.50;;;20.40;55.00;;;;;;5049493;28;20186;-66
2020/12/16 12:46:42;;;;;;;2.60;2.05;;;20.40;55.00;;;;;;5066706;28;20170;-67
2020/12/16 12:49:07;;;;;;;3.90;1.90;;;20.40;55.10;;;;;;5066333;28;20190;-66
2020/12/16 12:51:33;;;;;;;2.45;2.00;;;20.40;55.10;;;;;;5066196;28;20186;-66